Time;durP1;ratioP1;P1;durP2;ratioP2;P2;SDS_P1;SDS_P2;PMS_P1;PMS_P2;Temp;Humidity;BMP_temperature;BMP_pressure;BME280_temperature;BME280_humidity;BME280_pressure;Samples;Min_cycle;Max_cycle;Signal;HPM_P1;HPM_P2
2024/03/03 00:00:39;;;;;;;18.83;13.07;;;;;;;9.08;100.00;100482.47;7767476;22;20218;-67
2024/03/03 00:16:16;;;;;;;15.47;12.97;;;;;;;9.01;100.00;100485.84;7649023;22;20212;-69
2024/03/03 00:28:14;;;;;;;17.40;13.57;;;;;;;8.93;100.00;100488.38;7588179;23;20211;-70
2024/03/03 00:32:06;;;;;;;16.33;14.10;;;;;;;8.91;100.00;100493.84;7564114;23;20208;-69
2024/03/03 00:35:37;;;;;;;17.80;15.07;;;;;;;8.80;100.00;100488.59;7574486;23;20208;-70
2024/03/03 00:39:00;;;;;;;16.43;14.37;;;;;;;8.74;100.00;100479.22;7623894;23;20866;-70
2024/03/03 00:42:52;;;;;;;22.57;16.13;;;;;;;8.76;100.00;100487.97;7602099;23;20212;-69
2024/03/03 00:46:22;;;;;;;18.47;14.63;;;;;;;8.75;100.00;100501.56;7647524;23;20510;-69
2024/03/03 00:50:08;;;;;;;15.43;13.83;;;;;;;8.74;100.00;100499.88;7582509;23;20208;-70
2024/03/03 00:53:36;;;;;;;16.77;14.33;;;;;;;8.68;100.00;100500.38;7661250;23;20295;-69
2024/03/03 00:56:57;;;;;;;17.27;14.77;;;;;;;8.68;100.00;100495.88;7681979;23;20299;-68
2024/03/03 01:00:20;;;;;;;15.10;13.30;;;;;;;8.65;100.00;100497.97;7663770;23;20425;-69
2024/03/03 01:03:41;;;;;;;19.17;14.73;;;;;;;8.65;100.00;100498.84;7687664;23;20248;-68
2024/03/03 01:07:02;;;;;;;17.87;15.63;;;;;;;8.62;100.00;100503.59;7661528;23;20279;-68
2024/03/03 01:10:23;;;;;;;17.77;14.97;;;;;;;8.60;100.00;100490.31;7660033;23;20204;-68
2024/03/03 01:13:44;;;;;;;16.87;14.47;;;;;;;8.56;100.00;100490.72;7705600;23;20270;-68
2024/03/03 01:17:07;;;;;;;16.63;14.27;;;;;;;8.56;100.00;100485.34;7696925;23;20313;-68
2024/03/03 01:20:28;;;;;;;19.87;15.73;;;;;;;8.56;100.00;100482.66;7698860;23;20212;-67
2024/03/03 01:23:49;;;;;;;15.70;14.00;;;;;;;8.54;100.00;100487.31;7706643;23;20219;-69
2024/03/03 01:27:10;;;;;;;17.10;14.97;;;;;;;8.46;100.00;100500.56;7697044;23;20426;-68
2024/03/03 01:30:31;;;;;;;23.53;17.50;;;;;;;8.44;100.00;100487.25;7677566;23;20212;-69
2024/03/03 01:33:53;;;;;;;19.33;15.77;;;;;;;8.43;100.00;100482.00;7690156;23;20208;-69
2024/03/03 01:37:14;;;;;;;18.50;15.20;;;;;;;8.43;100.00;100476.63;7696021;23;20598;-69
2024/03/03 01:40:35;;;;;;;17.77;15.87;;;;;;;8.44;100.00;100481.91;7621681;23;20216;-67
2024/03/03 01:43:58;;;;;;;17.03;15.27;;;;;;;8.45;100.00;100482.75;7674027;23;20219;-70
2024/03/03 01:47:21;;;;;;;20.23;14.87;;;;;;;8.36;100.00;100479.03;7625147;23;20219;-68
2024/03/03 01:50:44;;;;;;;21.57;15.07;;;;;;;8.42;100.00;100483.00;7677681;23;20216;-69
2024/03/03 01:54:06;;;;;;;18.57;15.50;;;;;;;8.46;100.00;100473.69;7705169;23;20219;-69
2024/03/03 01:57:27;;;;;;;19.40;15.43;;;;;;;8.46;100.00;100473.69;7695922;23;20223;-68
2024/03/03 02:00:48;;;;;;;18.70;16.70;;;;;;;8.34;100.00;100472.94;7698195;23;20576;-68
2024/03/03 02:04:12;;;;;;;17.77;15.87;;;;;;;8.36;100.00;100470.09;7702744;23;20294;-68
2024/03/03 02:07:33;;;;;;;17.07;14.90;;;;;;;8.41;100.00;100465.16;7656744;23;20207;-68
2024/03/03 02:10:54;;;;;;;18.60;14.63;;;;;;;8.34;100.00;100470.25;7698154;23;20212;-69
2024/03/03 02:14:16;;;;;;;16.70;14.70;;;;;;;8.31;100.00;100461.56;7704207;23;20207;-68
2024/03/03 02:17:37;;;;;;;16.67;14.50;;;;;;;8.30;100.00;100462.56;7689647;23;20212;-68
2024/03/03 02:20:58;;;;;;;20.47;17.47;;;;;;;8.24;100.00;100463.91;7695306;23;20211;-68
2024/03/03 02:24:20;;;;;;;21.53;15.33;;;;;;;8.25;100.00;100451.34;7704805;23;20254;-69
2024/03/03 02:27:41;;;;;;;19.37;14.67;;;;;;;8.32;100.00;100460.63;7666309;23;20470;-68
2024/03/03 02:31:03;;;;;;;20.47;15.63;;;;;;;8.21;100.00;100455.28;7633444;23;20279;-67
2024/03/03 02:34:28;;;;;;;20.73;16.00;;;;;;;8.22;100.00;100449.75;7664543;23;20209;-68
2024/03/03 02:37:49;;;;;;;17.57;15.70;;;;;;;8.23;100.00;100451.47;7658618;23;20213;-67
2024/03/03 02:41:11;;;;;;;20.37;18.17;;;;;;;8.16;100.00;100450.28;7662284;23;20212;-69
2024/03/03 02:44:32;;;;;;;23.03;16.70;;;;;;;8.16;100.00;100444.06;7655030;23;20434;-68
2024/03/03 02:47:55;;;;;;;21.13;15.63;;;;;;;8.20;100.00;100450.91;7599832;23;20212;-68
2024/03/03 02:51:16;;;;;;;17.67;14.90;;;;;;;8.19;100.00;100450.03;7643218;23;20212;-69
2024/03/03 02:54:39;;;;;;;18.10;16.17;;;;;;;8.19;100.00;100455.41;7624953;23;20216;-71
2024/03/03 03:02:11;;;;;;;18.90;16.93;;;;;;;8.17;100.00;100449.31;7513991;23;20252;-69
2024/03/03 03:05:32;;;;;;;20.33;17.03;;;;;;;8.17;100.00;100449.31;7620251;23;20212;-69
2024/03/03 03:08:56;;;;;;;17.00;15.30;;;;;;;8.18;100.00;100442.13;7624370;23;20216;-70
2024/03/03 03:12:17;;;;;;;20.43;15.27;;;;;;;8.13;100.00;100445.19;7645153;23;20247;-69
2024/03/03 03:15:40;;;;;;;19.97;16.30;;;;;;;8.12;100.00;100437.25;7667749;23;20204;-68
2024/03/03 03:19:02;;;;;;;18.63;15.00;;;;;;;8.13;100.00;100437.16;7649401;23;20212;-68
2024/03/03 03:22:24;;;;;;;19.23;16.90;;;;;;;8.01;100.00;100447.06;7659431;23;20221;-69
2024/03/03 03:25:47;;;;;;;20.70;17.13;;;;;;;7.99;100.00;100442.81;7628252;23;20263;-69
2024/03/03 03:29:08;;;;;;;18.67;15.80;;;;;;;7.94;100.00;100443.22;7688660;23;20212;-69
2024/03/03 03:32:32;;;;;;;19.27;16.13;;;;;;;7.95;100.00;100438.69;7654464;23;20289;-67
2024/03/03 03:35:54;;;;;;;18.53;15.70;;;;;;;7.97;100.00;100442.09;7670022;23;20330;-69
2024/03/03 03:39:16;;;;;;;19.83;16.03;;;;;;;7.94;100.00;100445.06;7667942;23;20204;-67
2024/03/03 03:42:36;;;;;;;21.17;15.33;;;;;;;7.96;100.00;100443.94;7654729;23;20219;-68
2024/03/03 03:45:57;;;;;;;20.67;15.80;;;;;;;7.89;100.00;100450.81;7693874;23;20207;-67
2024/03/03 03:49:21;;;;;;;21.30;17.80;;;;;;;7.93;100.00;100451.38;7689457;23;20575;-69
2024/03/03 03:52:43;;;;;;;20.93;17.73;;;;;;;7.97;100.00;100442.97;7700185;23;20239;-69
2024/03/03 03:56:07;;;;;;;19.90;16.07;;;;;;;7.95;100.00;100447.59;7697455;23;20211;-68
2024/03/03 03:59:29;;;;;;;17.83;15.80;;;;;;;7.95;100.00;100442.22;7691464;23;20208;-69
2024/03/03 04:02:50;;;;;;;21.13;16.63;;;;;;;7.93;100.00;100446.03;7695029;23;20211;-67
2024/03/03 04:06:11;;;;;;;19.23;15.17;;;;;;;7.91;100.00;100454.22;7671978;23;20211;-69
2024/03/03 04:09:33;;;;;;;20.90;16.37;;;;;;;7.86;100.00;100463.66;7705738;23;20306;-68
2024/03/03 04:12:56;;;;;;;19.83;17.70;;;;;;;7.90;100.00;100462.41;7698494;23;20247;-68
2024/03/03 04:16:18;;;;;;;18.07;16.17;;;;;;;7.95;100.00;100460.16;7696514;23;20208;-69
2024/03/03 04:19:42;;;;;;;21.03;16.10;;;;;;;7.92;100.00;100455.06;7706692;23;20208;-68
2024/03/03 04:23:03;;;;;;;21.40;16.40;;;;;;;7.88;100.00;100464.38;7698035;23;20212;-68
2024/03/03 04:26:25;;;;;;;19.73;16.43;;;;;;;7.84;100.00;100473.66;7659860;23;20219;-68
2024/03/03 04:29:48;;;;;;;20.20;15.87;;;;;;;7.80;100.00;100467.69;7708470;23;20327;-68
2024/03/03 04:33:09;;;;;;;18.83;16.90;;;;;;;7.77;100.00;100469.78;7663244;23;20208;-69
2024/03/03 04:36:31;;;;;;;21.10;17.67;;;;;;;7.74;100.00;100460.13;7686470;23;20319;-67
2024/03/03 04:39:55;;;;;;;19.87;17.13;;;;;;;7.80;100.00;100459.63;7708045;23;20250;-68
2024/03/03 04:43:17;;;;;;;20.80;17.10;;;;;;;7.72;100.00;100459.41;7691575;23;20220;-68
2024/03/03 04:46:38;;;;;;;23.67;17.17;;;;;;;7.73;100.00;100458.44;7664019;23;20219;-69
2024/03/03 04:49:59;;;;;;;19.83;17.10;;;;;;;7.71;100.00;100452.38;7691351;23;20212;-68
2024/03/03 04:53:20;;;;;;;18.77;16.77;;;;;;;7.67;100.00;100452.75;7706803;23;20207;-68
2024/03/03 04:56:41;;;;;;;16.17;14.33;;;;;;;7.59;100.00;100450.72;7695268;23;20212;-69
2024/03/03 05:00:09;;;;;;;18.67;16.43;;;;;;;7.55;100.00;100448.41;7707465;23;20224;-69
2024/03/03 05:03:30;;;;;;;20.30;17.43;;;;;;;7.55;100.00;100443.03;7703879;23;20208;-68
2024/03/03 05:06:51;;;;;;;19.40;16.00;;;;;;;7.47;100.00;100443.66;7682577;23;20216;-69
2024/03/03 05:10:12;;;;;;;19.50;16.83;;;;;;;7.49;100.00;100448.94;7701314;23;20216;-67
2024/03/03 05:13:32;;;;;;;18.23;15.77;;;;;;;7.49;100.00;100444.38;7704904;23;20208;-68
2024/03/03 05:16:55;;;;;;;19.47;16.90;;;;;;;7.43;100.00;100444.91;7692824;23;20212;-68
2024/03/03 05:20:16;;;;;;;21.87;18.47;;;;;;;7.42;100.00;100437.00;7697123;23;20661;-68
2024/03/03 05:23:37;;;;;;;23.67;16.87;;;;;;;7.37;100.00;100447.22;7706678;23;20216;-68
2024/03/03 05:26:58;;;;;;;23.30;18.83;;;;;;;7.46;100.00;100443.81;7697416;23;20211;-69
2024/03/03 05:30:19;;;;;;;24.20;16.77;;;;;;;7.42;100.00;100432.50;7672763;23;20215;-67
2024/03/03 05:33:41;;;;;;;21.80;18.10;;;;;;;7.44;100.00;100438.56;7673052;23;20208;-67
2024/03/03 05:37:02;;;;;;;22.70;16.83;;;;;;;7.42;100.00;100429.81;7682816;23;20211;-68
2024/03/03 05:40:23;;;;;;;19.23;16.63;;;;;;;7.44;100.00;100427.00;7699080;23;20478;-68
2024/03/03 05:43:43;;;;;;;22.77;17.20;;;;;;;7.47;100.00;100434.78;7705368;23;20413;-69
2024/03/03 05:47:05;;;;;;;19.27;17.23;;;;;;;7.46;100.00;100431.25;7688670;23;20224;-68
2024/03/03 05:50:27;;;;;;;19.43;17.47;;;;;;;7.46;100.00;100433.94;7678532;23;20449;-68
2024/03/03 05:53:48;;;;;;;21.17;16.87;;;;;;;7.46;100.00;100435.75;7678159;23;20295;-69
2024/03/03 05:57:11;;;;;;;20.27;16.00;;;;;;;7.45;100.00;100439.44;7693845;23;20598;-68
2024/03/03 06:00:32;;;;;;;18.73;16.33;;;;;;;7.44;100.00;100441.25;7679878;23;20594;-70
2024/03/03 06:03:52;;;;;;;23.83;18.83;;;;;;;7.42;100.00;100443.22;7687063;23;20223;-69
2024/03/03 06:07:17;;;;;;;23.57;16.77;;;;;;;7.45;100.00;100436.75;7681142;23;20227;-67
2024/03/03 06:10:38;;;;;;;23.93;17.53;;;;;;;7.45;100.00;100442.13;7671554;23;20216;-69
2024/03/03 06:13:59;;;;;;;26.10;17.70;;;;;;;7.42;100.00;100447.72;7702884;23;20418;-68
2024/03/03 06:17:21;;;;;;;20.53;17.83;;;;;;;7.40;100.00;100453.22;7691591;23;20216;-69
2024/03/03 06:20:42;;;;;;;21.03;16.43;;;;;;;7.36;100.00;100451.75;7690631;23;20219;-68
2024/03/03 06:24:04;;;;;;;21.93;18.00;;;;;;;7.40;100.00;100457.72;7705069;23;20526;-67
2024/03/03 06:27:25;;;;;;;19.83;17.73;;;;;;;7.36;100.00;100462.50;7695175;23;20449;-68
2024/03/03 06:30:46;;;;;;;23.87;18.13;;;;;;;7.33;100.00;100467.22;7696594;23;20216;-69
2024/03/03 06:34:08;;;;;;;20.47;18.13;;;;;;;7.36;100.00;100472.34;7704223;23;20208;-68
2024/03/03 06:37:31;;;;;;;20.10;18.03;;;;;;;7.38;100.00;100475.75;7694362;23;20215;-69
2024/03/03 06:40:53;;;;;;;23.07;20.53;;;;;;;7.38;100.00;100478.44;7682581;23;20291;-69
2024/03/03 06:44:16;;;;;;;20.10;17.00;;;;;;;7.39;100.00;100483.66;7703403;23;20299;-67
2024/03/03 06:47:37;;;;;;;23.40;19.43;;;;;;;7.40;100.00;100482.72;7690947;23;20212;-69
2024/03/03 06:50:58;;;;;;;23.40;18.00;;;;;;;7.46;100.00;100486.72;7679580;23;20212;-68
2024/03/03 06:54:19;;;;;;;22.27;19.87;;;;;;;7.40;100.00;100485.38;7703360;23;20504;-68
2024/03/03 06:57:41;;;;;;;20.23;16.03;;;;;;;7.41;100.00;100496.94;7692681;23;20612;-69
2024/03/03 07:01:03;;;;;;;19.87;15.60;;;;;;;7.44;100.00;100494.88;7690906;23;20212;-68
2024/03/03 07:04:24;;;;;;;24.67;18.83;;;;;;;7.46;100.00;100495.59;7697979;23;20215;-68
2024/03/03 07:07:45;;;;;;;23.93;21.30;;;;;;;7.49;100.00;100495.34;7691043;23;20210;-68
2024/03/03 07:11:06;;;;;;;26.13;21.73;;;;;;;7.52;100.00;100496.94;7694048;23;20282;-68
2024/03/03 07:14:29;;;;;;;21.93;19.27;;;;;;;7.60;100.00;100500.69;7702674;23;20212;-68
2024/03/03 07:17:50;;;;;;;22.03;19.60;;;;;;;7.63;100.00;100502.28;7691381;23;20215;-68
2024/03/03 07:21:11;;;;;;;26.17;21.23;;;;;;;7.67;100.00;100501.91;7678252;23;20452;-67
2024/03/03 07:24:31;;;;;;;23.57;18.97;;;;;;;7.69;100.00;100502.63;7702144;23;20216;-67
2024/03/03 07:27:52;;;;;;;25.60;21.17;;;;;;;7.80;100.00;100509.78;7652610;23;1033063;-67
2024/03/03 07:31:15;;;;;;;23.70;21.13;;;;;;;7.88;100.00;100515.34;7690335;23;20216;-68
2024/03/03 07:34:35;;;;;;;27.03;22.03;;;;;;;7.94;100.00;100513.00;7701062;23;20216;-68
2024/03/03 07:37:56;;;;;;;24.90;20.70;;;;;;;8.04;100.00;100519.31;7656171;23;20255;-68
2024/03/03 07:41:17;;;;;;;27.27;21.30;;;;;;;8.07;100.00;100510.97;7698624;23;20208;-67
2024/03/03 07:44:38;;;;;;;25.17;19.80;;;;;;;8.15;100.00;100521.09;7704608;23;20215;-67
2024/03/03 07:48:00;;;;;;;25.93;23.13;;;;;;;8.19;100.00;100516.31;7694121;23;20208;-67
2024/03/03 07:51:21;;;;;;;23.23;20.07;;;;;;;8.32;100.00;100515.19;7694466;23;20212;-68
2024/03/03 07:54:42;;;;;;;23.47;19.90;;;;;;;8.48;100.00;100518.25;7706625;23;20208;-68
2024/03/03 07:58:03;;;;;;;20.63;18.57;;;;;;;8.58;100.00;100516.47;7698179;23;20215;-68
2024/03/03 08:01:24;;;;;;;26.80;21.47;;;;;;;8.64;100.00;100520.44;7696210;23;20211;-69
2024/03/03 08:04:46;;;;;;;26.03;20.23;;;;;;;8.70;100.00;100518.09;7705991;23;20220;-68
2024/03/03 08:08:07;;;;;;;24.33;20.37;;;;;;;8.92;100.00;100519.75;7702937;23;20204;-68
2024/03/03 08:11:29;;;;;;;28.63;20.10;;;;;;;8.94;100.00;100525.84;7691145;23;20216;-67
2024/03/03 08:14:49;;;;;;;25.63;22.63;;;;;;;8.99;100.00;100525.47;7707841;23;20247;-67
2024/03/03 08:18:10;;;;;;;24.77;22.13;;;;;;;9.13;100.00;100523.25;7697924;23;20211;-68
2024/03/03 08:21:33;;;;;;;24.80;22.13;;;;;;;9.33;100.00;100519.63;7696968;23;20677;-68
2024/03/03 08:24:54;;;;;;;27.67;22.43;;;;;;;9.62;100.00;100507.09;7706454;23;20216;-68
2024/03/03 08:28:15;;;;;;;26.07;22.10;;;;;;;9.74;100.00;100512.38;7701470;23;20216;-68
2024/03/03 08:31:39;;;;;;;27.07;20.73;;;;;;;9.95;100.00;100510.41;7687520;23;20207;-68
2024/03/03 08:35:01;;;;;;;27.60;22.37;;;;;;;10.17;100.00;100512.84;7701419;23;20207;-68
2024/03/03 08:38:23;;;;;;;27.73;22.03;;;;;;;10.35;100.00;100506.56;7703149;23;20211;-68
2024/03/03 08:41:44;;;;;;;27.60;22.43;;;;;;;10.56;100.00;100509.09;7694354;23;20216;-69
2024/03/03 08:45:07;;;;;;;30.77;22.73;;;;;;;10.64;100.00;100506.50;7701091;23;20302;-67
2024/03/03 08:48:28;;;;;;;30.53;21.73;;;;;;;10.60;100.00;100506.97;7701238;23;20204;-67
2024/03/03 08:51:50;;;;;;;32.70;26.67;;;;;;;10.95;100.00;100504.44;7696931;23;20299;-68
2024/03/03 08:55:12;;;;;;;28.30;23.87;;;;;;;10.98;100.00;100496.06;7697699;23;20246;-68
2024/03/03 08:58:33;;;;;;;29.77;22.30;;;;;;;11.07;100.00;100487.06;7704097;23;20981;-68
2024/03/03 09:01:54;;;;;;;26.37;23.53;;;;;;;11.38;100.00;100493.88;7690921;23;20298;-67
2024/03/03 09:05:15;;;;;;;29.93;24.43;;;;;;;11.31;100.00;100484.66;7695293;23;20228;-67
2024/03/03 09:08:37;;;;;;;25.20;22.37;;;;;;;11.24;100.00;100476.31;7703817;23;20260;-67
2024/03/03 09:12:00;;;;;;;29.80;23.87;;;;;;;11.75;100.00;100483.00;7695217;23;20227;-67
2024/03/03 09:15:20;;;;;;;24.13;21.07;;;;;;;11.83;100.00;100483.06;7700478;23;20530;-67
2024/03/03 09:18:41;;;;;;;28.83;22.30;;;;;;;11.94;100.00;100472.91;7703812;23;20299;-67
2024/03/03 09:22:03;;;;;;;29.17;22.53;;;;;;;12.25;100.00;100467.94;7694086;23;20287;-68
2024/03/03 09:25:23;;;;;;;27.93;21.87;;;;;;;12.50;100.00;100463.53;7696975;23;21103;-68
2024/03/03 09:28:46;;;;;;;24.03;20.80;;;;;;;12.64;100.00;100460.28;7705424;23;20533;-68
2024/03/03 09:32:07;;;;;;;24.20;21.60;;;;;;;12.71;100.00;100453.22;7688947;23;20295;-68
2024/03/03 09:35:27;;;;;;;24.70;20.50;;;;;;;12.75;100.00;100455.44;7693155;23;20698;-68
2024/03/03 09:38:48;;;;;;;25.33;20.33;;;;;;;13.06;100.00;100452.25;7704689;23;20294;-68
2024/03/03 09:42:09;;;;;;;26.23;20.40;;;;;;;13.15;100.00;100453.97;7694361;23;20649;-68
2024/03/03 09:45:32;;;;;;;24.67;21.53;;;;;;;13.21;100.00;100456.88;7687104;23;20562;-67
2024/03/03 09:48:53;;;;;;;25.33;21.03;;;;;;;13.57;100.00;100443.97;7701276;23;20286;-69
2024/03/03 09:52:15;;;;;;;21.70;18.07;;;;;;;13.85;100.00;100447.22;7696716;23;20294;-67
2024/03/03 09:55:37;;;;;;;23.70;21.00;;;;;;;13.78;100.00;100447.06;7694822;23;20208;-68
2024/03/03 09:58:58;;;;;;;20.20;17.33;;;;;;;14.62;100.00;100442.16;7704781;23;20211;-67
2024/03/03 10:02:22;;;;;;;20.40;18.03;;;;;;;15.31;100.00;100438.66;7686321;23;20246;-68
2024/03/03 10:05:44;;;;;;;19.83;17.00;;;;;;;16.05;100.00;100445.34;7692647;23;20623;-68
2024/03/03 10:09:09;;;;;;;20.77;18.07;;;;;;;18.30;100.00;100443.47;7704995;23;20811;-67
2024/03/03 10:12:32;;;;;;;19.83;17.03;;;;;;;19.07;100.00;100430.59;7695484;23;20207;-67
2024/03/03 10:15:55;;;;;;;21.17;17.70;;;;;;;20.65;100.00;100435.44;7687043;23;20208;-68
2024/03/03 10:19:17;;;;;;;21.60;17.40;;;;;;;21.92;91.75;100432.97;7701078;23;20990;-67
2024/03/03 10:22:37;;;;;;;18.73;14.65;;;;;;;21.38;83.56;100434.25;7694936;23;20298;-69
2024/03/03 10:25:59;;;;;;;15.85;14.20;;;;;;;23.71;72.22;100429.97;7697582;23;20215;-68
2024/03/03 10:29:20;;;;;;;16.85;14.55;;;;;;;24.90;63.97;100429.81;7706613;23;20668;-68
2024/03/03 10:32:41;;;;;;;16.75;14.98;;;;;;;24.54;59.16;100422.59;7692589;23;20295;-68
2024/03/03 10:36:07;;;;;;;16.63;14.88;;;;;;;23.32;59.63;100423.06;7693683;23;20207;-68
2024/03/03 10:39:31;;;;;;;16.50;14.55;;;;;;;25.64;55.30;100427.06;7704352;23;20212;-68
2024/03/03 10:42:52;;;;;;;15.35;13.75;;;;;;;26.00;49.93;100421.16;7699388;23;20226;-68
2024/03/03 10:46:13;;;;;;;15.55;13.90;;;;;;;26.12;47.70;100421.97;7683727;23;20215;-68
2024/03/03 10:49:34;;;;;;;14.00;12.10;;;;;;;26.70;46.01;100418.81;7702232;23;20223;-68
2024/03/03 10:52:57;;;;;;;15.63;12.02;;;;;;;27.56;43.74;100409.00;7695231;23;20211;-68
2024/03/03 10:56:19;;;;;;;13.88;12.57;;;;;;;27.27;42.78;100411.09;7699762;23;20215;-68
2024/03/03 10:59:41;;;;;;;14.55;13.25;;;;;;;24.31;48.41;100420.63;7707335;23;20554;-67
2024/03/03 11:03:03;;;;;;;14.30;12.75;;;;;;;25.36;46.00;100408.53;7695599;23;20216;-67
2024/03/03 11:06:25;;;;;;;14.95;12.80;;;;;;;27.07;44.48;100404.44;7697765;23;20216;-68
2024/03/03 11:09:47;;;;;;;14.45;12.95;;;;;;;26.50;43.81;100401.91;7707838;23;20211;-69
2024/03/03 11:13:12;;;;;;;13.18;11.85;;;;;;;28.05;41.63;100409.88;7703437;23;20265;-69
2024/03/03 11:16:34;;;;;;;15.27;13.68;;;;;;;28.46;38.75;100398.88;7695161;23;20215;-69
2024/03/03 11:19:59;;;;;;;13.73;12.20;;;;;;;27.62;39.66;100405.19;7703144;23;20298;-69
2024/03/03 11:23:26;;;;;;;13.57;12.20;;;;;;;27.78;40.09;100407.06;7706664;23;20215;-68
2024/03/03 11:26:55;;;;;;;12.95;11.57;;;;;;;27.53;39.34;100392.91;7697380;23;20539;-68
2024/03/03 11:30:17;;;;;;;11.70;10.60;;;;;;;27.23;39.07;100393.34;7695198;23;20215;-68
2024/03/03 11:33:40;;;;;;;12.73;11.45;;;;;;;27.49;39.13;100389.00;7704032;23;20216;-68
2024/03/03 11:37:01;;;;;;;12.60;10.93;;;;;;;26.01;42.28;100378.63;7700432;23;20212;-68
2024/03/03 11:40:22;;;;;;;13.27;11.45;;;;;;;25.86;42.94;100378.34;7701653;23;20212;-69
2024/03/03 11:43:45;;;;;;;12.55;10.82;;;;;;;27.25;39.84;100370.91;7706633;23;20541;-68
2024/03/03 11:47:09;;;;;;;12.35;10.68;;;;;;;28.19;38.28;100367.59;7691015;23;20211;-69
2024/03/03 11:50:30;;;;;;;13.40;11.93;;;;;;;28.87;37.09;100361.19;7697462;23;20211;-68
2024/03/03 11:53:59;;;;;;;12.05;10.93;;;;;;;29.57;36.13;100357.94;7705891;23;20299;-68
2024/03/03 11:57:19;;;;;;;13.45;11.18;;;;;;;27.94;36.85;100358.16;7699768;23;20215;-68
2024/03/03 12:00:42;;;;;;;15.55;10.35;;;;;;;28.53;35.93;100353.44;7694822;23;20220;-68
2024/03/03 12:04:03;;;;;;;11.88;10.77;;;;;;;29.51;34.38;100355.41;7703988;23;20212;-68
2024/03/03 12:07:24;;;;;;;11.95;10.75;;;;;;;29.40;34.72;100348.13;7695721;23;20207;-69
2024/03/03 12:10:45;;;;;;;11.90;10.73;;;;;;;28.95;35.97;100345.97;7697548;23;20219;-69
2024/03/03 12:14:07;;;;;;;13.55;12.25;;;;;;;28.96;36.34;100348.47;7705770;23;20211;-68
2024/03/03 12:17:30;;;;;;;14.00;12.63;;;;;;;29.80;34.52;100337.16;7689207;23;20219;-69
2024/03/03 12:20:53;;;;;;;13.02;11.73;;;;;;;30.90;33.27;100333.56;7695465;23;20253;-69
2024/03/03 12:24:15;;;;;;;15.50;13.15;;;;;;;29.98;33.27;100344.97;7705413;23;20538;-68
2024/03/03 12:27:36;;;;;;;13.90;12.45;;;;;;;28.36;35.72;100337.78;7696346;23;20594;-67
2024/03/03 12:30:58;;;;;;;13.30;11.90;;;;;;;28.53;36.56;100336.78;7691881;23;20217;-69
2024/03/03 12:34:20;;;;;;;15.57;13.18;;;;;;;29.19;36.60;100336.13;7645942;23;20272;-69
2024/03/03 12:37:41;;;;;;;16.30;14.70;;;;;;;28.98;35.67;100345.41;7663964;23;20282;-68
2024/03/03 12:41:11;;;;;;;15.73;14.30;;;;;;;29.51;34.95;100335.97;7671898;23;20489;-69
2024/03/03 12:44:35;;;;;;;15.02;13.43;;;;;;;29.73;34.54;100326.31;7705288;23;20207;-68
2024/03/03 12:47:56;;;;;;;15.13;13.60;;;;;;;28.70;35.71;100326.41;7688507;23;20515;-69
2024/03/03 12:51:20;;;;;;;15.02;13.63;;;;;;;29.46;35.33;100322.03;7696435;23;20502;-68
2024/03/03 12:54:41;;;;;;;16.48;14.77;;;;;;;29.98;33.88;100320.78;7705812;23;20211;-67
2024/03/03 12:58:04;;;;;;;15.30;13.77;;;;;;;28.00;36.50;100318.34;7691894;23;20239;-68
2024/03/03 13:01:25;;;;;;;16.75;15.15;;;;;;;26.14;40.80;100322.22;7677636;23;20570;-68
2024/03/03 13:04:46;;;;;;;16.42;14.85;;;;;;;24.95;44.25;100314.09;7704947;23;20216;-69
2024/03/03 13:08:11;;;;;;;17.38;15.43;;;;;;;23.78;49.37;100315.91;7701665;23;20220;-69
2024/03/03 13:11:31;;;;;;;16.15;14.45;;;;;;;23.79;51.03;100314.00;7700066;23;20282;-67
2024/03/03 13:14:55;;;;;;;16.45;14.68;;;;;;;23.70;51.83;100319.00;7687398;23;20924;-67
2024/03/03 13:18:16;;;;;;;18.83;14.35;;;;;;;22.10;56.81;100314.97;7701494;23;20211;-68
2024/03/03 13:21:37;;;;;;;16.52;14.82;;;;;;;19.98;66.53;100324.44;7692031;23;20212;-69
2024/03/03 13:25:02;;;;;;;18.15;15.07;;;;;;;19.37;73.35;100326.47;7687297;23;20212;-70
2024/03/03 13:28:23;;;;;;;16.55;14.30;;;;;;;19.08;79.37;100323.00;7702618;23;20207;-69
2024/03/03 13:31:44;;;;;;;15.25;13.65;;;;;;;20.10;75.17;100323.59;7674078;23;20219;-68
2024/03/03 13:35:05;;;;;;;20.58;14.40;;;;;;;19.24;77.40;100326.38;7685569;23;20216;-67
2024/03/03 13:38:26;;;;;;;18.02;15.35;;;;;;;18.62;80.62;100332.00;7705270;23;20211;-68
2024/03/03 13:41:49;;;;;;;15.23;13.73;;;;;;;19.77;79.63;100322.75;7699887;23;20215;-69
2024/03/03 13:45:10;;;;;;;18.35;14.95;;;;;;;23.13;60.89;100322.34;7690901;23;20215;-69
2024/03/03 13:48:32;;;;;;;18.45;13.88;;;;;;;24.00;54.67;100326.38;7702102;23;20235;-69
2024/03/03 13:51:53;;;;;;;16.80;15.10;;;;;;;21.43;60.75;100329.34;7693208;23;20302;-69
2024/03/03 13:55:15;;;;;;;16.23;14.00;;;;;;;20.10;69.84;100331.81;7697613;23;20242;-67
2024/03/03 13:58:37;;;;;;;18.60;14.52;;;;;;;19.75;74.77;100338.53;7706680;23;20215;-68
2024/03/03 14:01:58;;;;;;;17.90;14.68;;;;;;;20.46;76.26;100342.34;7697695;23;20204;-69
2024/03/03 14:05:19;;;;;;;17.15;15.35;;;;;;;19.25;76.63;100339.88;7696629;23;20514;-68
2024/03/03 14:08:40;;;;;;;20.60;17.92;;;;;;;18.07;85.80;100344.59;7704736;23;20212;-68
2024/03/03 14:12:02;;;;;;;16.25;14.18;;;;;;;18.15;90.04;100344.44;7698272;23;20237;-69
2024/03/03 14:15:29;;;;;;;18.67;16.75;;;;;;;17.58;93.65;100344.56;7681358;23;20530;-68
2024/03/03 14:18:51;;;;;;;18.02;16.02;;;;;;;17.92;97.09;100334.84;7699440;23;20283;-68
2024/03/03 14:22:12;;;;;;;18.55;16.20;;;;;;;18.25;95.48;100342.22;7697381;23;20216;-68
2024/03/03 14:25:33;;;;;;;18.80;16.65;;;;;;;18.24;92.80;100337.81;7695167;23;20215;-69
2024/03/03 14:28:54;;;;;;;22.05;16.13;;;;;;;18.00;95.48;100342.88;7688600;23;20203;-68
2024/03/03 14:32:16;;;;;;;17.80;15.93;;;;;;;17.74;97.93;100340.75;7677113;23;20286;-68
2024/03/03 14:35:37;;;;;;;17.00;15.18;;;;;;;17.73;99.83;100349.94;7697413;23;20687;-68
2024/03/03 14:38:58;;;;;;;17.95;14.65;;;;;;;18.76;87.63;100342.78;7705422;23;20565;-68
2024/03/03 14:42:19;;;;;;;18.70;15.52;;;;;;;18.56;85.81;100350.03;7679552;23;20223;-69
2024/03/03 14:45:40;;;;;;;14.00;12.60;;;;;;;21.01;77.63;100336.28;7686950;23;20208;-68
2024/03/03 14:49:02;;;;;;;17.90;15.52;;;;;;;19.72;76.30;100344.41;7687992;23;20250;-68
2024/03/03 14:52:23;;;;;;;19.80;17.23;;;;;;;17.65;88.11;100352.81;7681833;23;20211;-68
2024/03/03 14:55:44;;;;;;;18.45;16.42;;;;;;;16.95;100.00;100358.06;7694948;23;20208;-68
2024/03/03 14:59:05;;;;;;;24.00;18.50;;;;;;;16.47;100.00;100351.28;7705542;23;20207;-68
2024/03/03 15:02:25;;;;;;;26.85;20.15;;;;;;;16.50;100.00;100363.72;7678938;23;20211;-69
2024/03/03 15:05:48;;;;;;;25.15;21.75;;;;;;;16.22;100.00;100365.31;7693479;23;20215;-68
2024/03/03 15:09:09;;;;;;;22.60;18.63;;;;;;;16.00;100.00;100361.59;7702246;23;20441;-69
2024/03/03 15:12:30;;;;;;;22.60;19.67;;;;;;;16.09;100.00;100371.38;7696886;23;20215;-68
2024/03/03 15:15:51;;;;;;;23.33;18.77;;;;;;;16.10;100.00;100370.38;7686741;23;20223;-68
2024/03/03 15:19:12;;;;;;;26.50;21.23;;;;;;;15.91;100.00;100373.59;7700699;23;20211;-68
2024/03/03 15:22:34;;;;;;;23.83;17.93;;;;;;;15.70;100.00;100374.28;7695465;23;20220;-68
2024/03/03 15:25:55;;;;;;;23.17;17.65;;;;;;;15.69;100.00;100372.56;7694457;23;20518;-69
2024/03/03 15:29:16;;;;;;;23.97;19.17;;;;;;;15.68;100.00;100380.91;7702936;23;20207;-68
2024/03/03 15:32:36;;;;;;;24.07;17.90;;;;;;;15.66;100.00;100372.94;7689004;23;20554;-69
2024/03/03 15:35:58;;;;;;;23.67;19.83;;;;;;;15.64;100.00;100379.59;7693005;23;21684;-68
2024/03/03 15:39:21;;;;;;;22.90;18.87;;;;;;;15.58;100.00;100381.13;7703390;23;20220;-68